Time;durP1;ratioP1;P1;durP2;ratioP2;P2;SDS_P1;SDS_P2;PMS_P1;PMS_P2;Temp;Humidity;BMP_temperature;BMP_pressure;BME280_temperature;BME280_humidity;BME280_pressure;Samples;Min_cycle;Max_cycle;Signal;HPM_P1;HPM_P2
2024/03/13 00:00:09;;;;;;;2.17;0.75;;;6.60;99.90;;;;;;5075552;28;20055;-75
2024/03/13 00:02:35;;;;;;;0.75;0.40;;;6.50;99.90;;;;;;5077074;28;20027;-74
2024/03/13 00:05:02;;;;;;;1.27;0.70;;;6.50;99.90;;;;;;5076155;28;20020;-76
2024/03/13 00:07:28;;;;;;;0.43;0.43;;;6.40;99.90;;;;;;5079108;28;20019;-77
2024/03/13 00:09:54;;;;;;;0.82;0.80;;;6.40;99.90;;;;;;5079365;28;20048;-76
2024/03/13 00:12:19;;;;;;;0.63;0.57;;;6.40;99.90;;;;;;5057976;28;20544;-75
2024/03/13 00:14:50;;;;;;;0.75;0.75;;;6.40;99.90;;;;;;5058387;28;20032;-76
2024/03/13 00:17:20;;;;;;;4.43;1.00;;;6.40;99.90;;;;;;5076565;28;20028;-75
2024/03/13 00:19:49;;;;;;;1.10;0.90;;;6.40;99.90;;;;;;5075748;28;20028;-76
2024/03/13 00:22:20;;;;;;;1.10;1.00;;;6.30;99.90;;;;;;5075685;28;20398;-75
2024/03/13 00:24:50;;;;;;;0.95;0.80;;;6.20;99.90;;;;;;5058210;28;20021;-76
2024/03/13 00:27:16;;;;;;;1.05;0.95;;;6.20;99.90;;;;;;5076680;28;20498;-76
2024/03/13 00:29:45;;;;;;;0.77;0.75;;;6.10;99.90;;;;;;5075860;28;20046;-76
2024/03/13 00:32:12;;;;;;;1.20;0.80;;;6.10;99.90;;;;;;5074979;28;20099;-74
2024/03/13 00:34:39;;;;;;;0.90;0.90;;;6.00;99.90;;;;;;5076548;28;20513;-76
2024/03/13 00:37:04;;;;;;;0.70;0.70;;;6.00;99.90;;;;;;5076495;28;20457;-76
2024/03/13 00:39:31;;;;;;;1.42;0.98;;;5.90;99.90;;;;;;5057852;28;20033;-76
2024/03/13 00:41:56;;;;;;;0.95;0.73;;;5.70;99.90;;;;;;5075361;28;20035;-75
2024/03/13 00:44:22;;;;;;;0.85;0.70;;;5.70;99.90;;;;;;5058258;28;20111;-76
2024/03/13 00:46:48;;;;;;;1.70;0.77;;;5.70;99.90;;;;;;5058283;28;20017;-76
2024/03/13 00:49:15;;;;;;;1.98;0.90;;;5.70;99.90;;;;;;5075977;28;20017;-75
2024/03/13 00:51:40;;;;;;;1.20;0.80;;;5.80;99.90;;;;;;5057515;28;20487;-76
2024/03/13 00:54:06;;;;;;;0.82;0.80;;;5.80;99.90;;;;;;5058188;28;20036;-76
2024/03/13 00:56:32;;;;;;;1.63;0.90;;;5.70;99.90;;;;;;5075790;28;20394;-74
2024/03/13 00:58:58;;;;;;;0.70;0.70;;;5.70;99.90;;;;;;5075596;28;20033;-75
2024/03/13 01:01:24;;;;;;;1.80;0.93;;;5.50;99.90;;;;;;5075206;28;20055;-75
2024/03/13 01:03:51;;;;;;;1.85;1.00;;;5.50;99.90;;;;;;5057956;28;20020;-76
2024/03/13 01:06:20;;;;;;;1.23;1.00;;;5.60;99.90;;;;;;5058154;28;20111;-75
2024/03/13 01:08:46;;;;;;;1.02;0.93;;;5.60;99.90;;;;;;5075363;28;20024;-75
2024/03/13 01:11:12;;;;;;;0.95;0.80;;;5.50;99.90;;;;;;5057890;28;20052;-75
2024/03/13 01:13:37;;;;;;;3.30;0.80;;;5.50;99.90;;;;;;5057550;28;20017;-76
2024/03/13 01:16:07;;;;;;;0.90;0.90;;;5.50;99.90;;;;;;5076315;28;20498;-75
2024/03/13 01:18:33;;;;;;;1.33;1.00;;;5.40;99.90;;;;;;5058847;28;20603;-77
2024/03/13 01:20:59;;;;;;;0.93;0.70;;;5.20;99.90;;;;;;5080102;28;20048;-77
2024/03/13 01:23:25;;;;;;;1.17;0.88;;;5.30;99.90;;;;;;5057214;28;20020;-77
2024/03/13 01:25:53;;;;;;;0.77;0.77;;;5.20;99.90;;;;;;5075607;28;20082;-78
2024/03/13 01:28:21;;;;;;;4.85;0.93;;;5.20;99.90;;;;;;5057571;28;20111;-77
2024/03/13 01:30:47;;;;;;;0.80;0.80;;;5.10;99.90;;;;;;5075446;28;20025;-78
2024/03/13 01:33:12;;;;;;;1.20;0.80;;;5.10;99.90;;;;;;5074856;28;20074;-77
2024/03/13 01:35:38;;;;;;;5.30;0.90;;;5.10;99.90;;;;;;5057649;28;20082;-78
2024/03/13 01:38:04;;;;;;;2.67;0.88;;;5.00;99.90;;;;;;5057829;28;20028;-76
2024/03/13 01:57:14;;;;;;;0.45;0.45;;;4.90;99.90;;;;;;5075346;28;20107;-76
2024/03/13 02:02:21;;;;;;;1.65;0.50;;;4.90;99.90;;;;;;5072963;28;20043;-77
2024/03/13 02:02:35;;;;;;;3.78;0.50;;;4.90;99.90;;;;;;5071513;28;20021;-78
2024/03/13 02:05:02;;;;;;;0.77;0.50;;;5.00;99.90;;;;;;5072332;28;20027;-77
2024/03/13 02:07:28;;;;;;;0.93;0.52;;;5.00;99.90;;;;;;5072465;28;20147;-77
2024/03/13 02:09:55;;;;;;;0.73;0.45;;;5.00;99.90;;;;;;5072121;28;20024;-77
2024/03/13 02:12:21;;;;;;;0.63;0.55;;;4.90;99.90;;;;;;5071788;28;20398;-77
2024/03/13 02:14:47;;;;;;;0.70;0.70;;;5.00;99.90;;;;;;5054445;28;20021;-77
2024/03/13 02:17:13;;;;;;;0.55;0.50;;;4.90;99.90;;;;;;5072018;28;20036;-77
2024/03/13 02:19:40;;;;;;;0.45;0.45;;;4.90;99.90;;;;;;5071916;28;20117;-77
2024/03/13 02:22:07;;;;;;;0.47;0.47;;;4.90;99.90;;;;;;5053692;28;20111;-77
2024/03/13 02:24:33;;;;;;;0.57;0.43;;;4.90;99.90;;;;;;5072204;28;20099;-78
2024/03/13 02:27:02;;;;;;;0.68;0.68;;;4.90;99.90;;;;;;5072106;28;20375;-77
2024/03/13 02:29:28;;;;;;;1.13;0.50;;;5.00;99.90;;;;;;5072170;28;20099;-77
2024/03/13 02:31:54;;;;;;;0.93;0.68;;;4.90;99.90;;;;;;5057153;28;20043;-77
2024/03/13 02:34:20;;;;;;;1.17;0.60;;;4.90;99.90;;;;;;5055902;28;20036;-77
2024/03/13 02:36:47;;;;;;;0.88;0.70;;;4.80;99.90;;;;;;5072078;28;20104;-77
2024/03/13 02:39:18;;;;;;;1.42;0.77;;;4.80;99.90;;;;;;5071499;28;20176;-77
2024/03/13 02:41:44;;;;;;;0.68;0.68;;;4.80;99.90;;;;;;5071219;28;20112;-77
2024/03/13 02:44:10;;;;;;;0.68;0.57;;;4.80;99.90;;;;;;5071993;28;20020;-77
2024/03/13 02:46:36;;;;;;;0.70;0.50;;;4.80;99.90;;;;;;5071772;28;20028;-77
2024/03/13 02:49:01;;;;;;;0.88;0.63;;;4.70;99.90;;;;;;5071412;28;20069;-77
2024/03/13 02:51:27;;;;;;;0.60;0.60;;;4.70;99.90;;;;;;5071313;28;20025;-78
2024/03/13 02:53:52;;;;;;;0.68;0.50;;;4.70;99.90;;;;;;5053977;28;20066;-77
2024/03/13 02:56:18;;;;;;;1.00;0.70;;;4.70;99.90;;;;;;5071374;28;20029;-77
2024/03/13 02:58:46;;;;;;;1.48;0.70;;;4.60;99.90;;;;;;5053724;28;20035;-77
2024/03/13 03:01:12;;;;;;;0.90;0.85;;;4.60;99.90;;;;;;5071422;28;20399;-77
2024/03/13 03:03:39;;;;;;;1.05;1.00;;;4.60;99.90;;;;;;5051777;28;20021;-77
2024/03/13 03:06:08;;;;;;;0.45;0.45;;;4.60;99.90;;;;;;5076322;28;20031;-77
2024/03/13 03:08:37;;;;;;;0.98;0.80;;;4.70;99.90;;;;;;5083177;28;20446;-77
2024/03/13 03:11:03;;;;;;;0.88;0.70;;;4.60;99.90;;;;;;5091687;28;20121;-77
2024/03/13 03:13:35;;;;;;;0.40;0.40;;;4.60;99.90;;;;;;5073113;28;20031;-77
2024/03/13 03:16:00;;;;;;;0.60;0.60;;;4.60;99.90;;;;;;5091845;28;20031;-77
2024/03/13 03:18:26;;;;;;;1.27;1.00;;;4.60;99.90;;;;;;5073638;28;20028;-77
2024/03/13 03:20:52;;;;;;;0.88;0.88;;;4.60;99.90;;;;;;5091576;28;20440;-77
2024/03/13 03:23:19;;;;;;;1.50;0.93;;;4.60;99.90;;;;;;5091030;28;20032;-77
2024/03/13 03:25:44;;;;;;;0.40;0.40;;;4.50;99.90;;;;;;5091753;28;20046;-77
2024/03/13 03:28:13;;;;;;;1.52;0.93;;;4.50;99.90;;;;;;5073403;28;20016;-77
2024/03/13 03:30:42;;;;;;;1.65;0.80;;;4.40;99.90;;;;;;5073523;28;20078;-77
2024/03/13 03:33:08;;;;;;;0.77;0.77;;;4.40;99.90;;;;;;5073054;28;20020;-77
2024/03/13 03:35:34;;;;;;;1.38;0.68;;;4.40;99.90;;;;;;5073646;28;20047;-77
2024/03/13 03:38:04;;;;;;;3.72;0.52;;;4.30;99.90;;;;;;5073477;28;20460;-77
2024/03/13 03:40:30;;;;;;;3.05;0.68;;;4.20;99.90;;;;;;5091553;28;20030;-77
2024/03/13 03:42:58;;;;;;;0.65;0.52;;;4.10;99.90;;;;;;5073176;28;20058;-78
2024/03/13 03:45:25;;;;;;;0.98;0.75;;;4.00;99.90;;;;;;5093758;28;20099;-77
2024/03/13 03:47:51;;;;;;;0.65;0.65;;;4.00;99.90;;;;;;5059837;28;20029;-78
2024/03/13 03:50:17;;;;;;;0.80;0.80;;;3.90;99.90;;;;;;5071182;28;20016;-78
2024/03/13 03:52:43;;;;;;;0.80;0.80;;;3.80;99.90;;;;;;5078591;28;20028;-77
2024/03/13 03:55:09;;;;;;;1.17;1.08;;;3.90;99.90;;;;;;5071268;28;20360;-77
2024/03/13 03:57:35;;;;;;;3.47;0.57;;;3.90;99.90;;;;;;5071112;28;20165;-77
2024/03/13 04:00:01;;;;;;;1.40;0.55;;;3.70;99.90;;;;;;5070988;28;20033;-77
2024/03/13 04:02:27;;;;;;;0.75;0.70;;;3.90;99.90;;;;;;5070685;28;20029;-77
2024/03/13 04:04:53;;;;;;;1.48;0.70;;;3.90;99.90;;;;;;5071166;28;20020;-77
2024/03/13 04:07:18;;;;;;;0.77;0.77;;;3.90;99.90;;;;;;5071716;28;20031;-77
2024/03/13 04:09:44;;;;;;;1.13;1.02;;;3.90;99.90;;;;;;5074393;28;20051;-77
2024/03/13 04:12:10;;;;;;;1.85;1.30;;;3.70;99.90;;;;;;5056159;28;20025;-77
2024/03/13 04:14:37;;;;;;;1.45;1.00;;;3.80;99.90;;;;;;5074631;28;20511;-77
2024/03/13 04:17:02;;;;;;;3.85;0.80;;;3.60;99.90;;;;;;5074412;28;20028;-77
2024/03/13 04:19:28;;;;;;;0.60;0.60;;;3.70;99.90;;;;;;5074039;28;20097;-78
2024/03/13 04:21:54;;;;;;;1.70;1.33;;;3.60;99.90;;;;;;5081467;28;20486;-77
2024/03/13 04:24:19;;;;;;;1.48;1.05;;;3.60;99.90;;;;;;5074454;28;20033;-77
2024/03/13 04:26:45;;;;;;;1.13;1.13;;;3.60;99.90;;;;;;5074241;28;20078;-77
2024/03/13 04:29:11;;;;;;;3.00;1.35;;;3.50;99.90;;;;;;5073251;28;20025;-77
2024/03/13 04:31:40;;;;;;;0.70;0.70;;;3.50;99.90;;;;;;5073040;28;20533;-77
2024/03/13 04:34:08;;;;;;;2.50;1.42;;;3.40;99.90;;;;;;5074303;28;20021;-77
2024/03/13 04:36:40;;;;;;;6.18;1.35;;;3.50;99.90;;;;;;5074259;28;20047;-77
2024/03/13 04:39:09;;;;;;;1.38;1.05;;;3.40;99.90;;;;;;5073786;28;20028;-77
2024/03/13 04:41:39;;;;;;;1.85;1.75;;;3.50;99.90;;;;;;5073565;28;20039;-78
2024/03/13 04:44:06;;;;;;;1.58;1.27;;;3.60;99.90;;;;;;5056106;28;20024;-77
2024/03/13 04:46:31;;;;;;;1.83;1.52;;;3.50;99.90;;;;;;5056161;28;20442;-77
2024/03/13 04:48:57;;;;;;;2.50;1.70;;;3.50;99.90;;;;;;5055866;28;20056;-77
2024/03/13 04:51:23;;;;;;;4.15;2.80;;;3.60;99.90;;;;;;5073346;28;20016;-77
2024/03/13 04:53:48;;;;;;;4.22;2.45;;;3.50;99.90;;;;;;5055596;28;20025;-77
2024/03/13 04:56:14;;;;;;;3.78;2.38;;;3.50;99.90;;;;;;5081113;28;20028;-78
2024/03/13 04:58:40;;;;;;;7.53;2.92;;;3.50;99.90;;;;;;5074920;28;20028;-77
2024/03/13 05:01:05;;;;;;;5.40;2.53;;;3.40;99.90;;;;;;5073545;28;20413;-77
2024/03/13 05:03:31;;;;;;;6.35;3.65;;;3.50;99.90;;;;;;5054849;28;20029;-77
2024/03/13 05:05:57;;;;;;;2.95;2.30;;;3.40;99.90;;;;;;5055469;28;20028;-77
2024/03/13 05:08:23;;;;;;;4.70;3.05;;;3.40;99.90;;;;;;5073229;28;20024;-77
2024/03/13 05:10:48;;;;;;;4.90;2.67;;;3.40;99.90;;;;;;5055499;28;20519;-77
2024/03/13 05:13:15;;;;;;;10.27;5.45;;;3.40;99.90;;;;;;5072680;28;20021;-76
2024/03/13 05:15:41;;;;;;;6.32;3.38;;;3.40;99.90;;;;;;5055366;28;20020;-76
2024/03/13 05:18:07;;;;;;;5.07;2.63;;;3.40;99.90;;;;;;5055141;28;20028;-77
2024/03/13 05:20:33;;;;;;;5.25;2.63;;;3.50;99.90;;;;;;5055309;28;20135;-77
2024/03/13 05:23:01;;;;;;;3.20;2.33;;;3.30;99.90;;;;;;5072291;28;20028;-77
2024/03/13 05:25:27;;;;;;;4.05;2.40;;;3.40;99.90;;;;;;5055405;28;20032;-77
2024/03/13 05:27:53;;;;;;;3.53;2.35;;;3.40;99.90;;;;;;5072993;28;20596;-77
2024/03/13 05:30:19;;;;;;;7.53;3.00;;;3.40;99.90;;;;;;5054796;28;20044;-77
2024/03/13 05:32:44;;;;;;;19.10;7.85;;;3.30;99.90;;;;;;5054163;28;20424;-77
2024/03/13 05:35:12;;;;;;;30.95;17.58;;;3.30;99.90;;;;;;5072184;28;20029;-77
2024/03/13 05:37:39;;;;;;;17.48;8.70;;;3.30;99.90;;;;;;5054489;28;20025;-77
2024/03/13 05:40:12;;;;;;;38.65;15.73;;;3.30;99.90;;;;;;5072824;28;20021;-77
2024/03/13 05:42:39;;;;;;;33.10;12.98;;;3.30;99.90;;;;;;5072320;28;20024;-77
2024/03/13 05:45:07;;;;;;;50.10;17.67;;;3.30;99.90;;;;;;5071930;28;20024;-77
2024/03/13 05:47:32;;;;;;;28.88;13.93;;;3.30;99.90;;;;;;5072862;28;20151;-77
2024/03/13 05:49:58;;;;;;;8.82;4.60;;;3.40;99.90;;;;;;5054700;28;20108;-77
2024/03/13 05:52:24;;;;;;;2.97;1.98;;;3.40;99.90;;;;;;5054138;28;20028;-78
2024/03/13 05:54:50;;;;;;;2.05;1.83;;;3.40;99.90;;;;;;5072701;28;20028;-78
2024/03/13 05:57:15;;;;;;;3.03;1.50;;;3.50;99.90;;;;;;5072312;28;20029;-77
2024/03/13 05:59:41;;;;;;;5.28;1.52;;;3.50;99.90;;;;;;5072181;28;20461;-77
2024/03/13 06:02:07;;;;;;;1.80;1.70;;;3.60;99.90;;;;;;5071843;28;20058;-77
2024/03/13 06:04:33;;;;;;;5.63;2.65;;;3.70;99.90;;;;;;5072434;28;20372;-77
2024/03/13 06:06:59;;;;;;;7.03;3.50;;;3.70;99.90;;;;;;5074470;28;20017;-77
2024/03/13 06:09:25;;;;;;;6.88;3.10;;;3.80;99.90;;;;;;5073300;28;20107;-77
2024/03/13 06:11:52;;;;;;;6.75;4.20;;;3.90;99.90;;;;;;5053902;28;20040;-77
2024/03/13 06:14:18;;;;;;;4.90;3.35;;;3.90;99.90;;;;;;5054548;28;20554;-77
2024/03/13 06:16:43;;;;;;;3.42;2.30;;;4.00;99.90;;;;;;5072252;28;20064;-77
2024/03/13 06:19:10;;;;;;;2.38;2.15;;;4.10;99.90;;;;;;5071916;28;20031;-77
2024/03/13 06:21:36;;;;;;;4.85;2.35;;;4.20;99.90;;;;;;5070563;28;20021;-77
2024/03/13 06:24:05;;;;;;;4.88;2.40;;;4.30;99.90;;;;;;5067572;28;20035;-78
2024/03/13 06:26:31;;;;;;;3.72;2.10;;;4.40;99.90;;;;;;5079513;28;20020;-79
2024/03/13 06:31:41;;;;;;;5.05;2.75;;;5.60;99.90;;;;;;5092932;28;20027;-77
2024/03/13 06:34:08;;;;;;;2.78;2.35;;;5.50;99.90;;;;;;5066545;28;20021;-78
2024/03/13 06:36:39;;;;;;;5.60;2.78;;;5.50;99.90;;;;;;5081326;28;20103;-78
2024/03/13 06:39:05;;;;;;;5.50;2.70;;;5.50;99.90;;;;;;5080568;28;20025;-79
2024/03/13 06:41:31;;;;;;;3.75;2.25;;;5.70;99.90;;;;;;5061620;28;20437;-78
2024/03/13 06:43:57;;;;;;;3.50;2.70;;;5.80;99.90;;;;;;5072011;28;20070;-79
2024/03/13 06:46:24;;;;;;;4.22;2.65;;;5.90;99.90;;;;;;5046050;28;20575;-79
2024/03/13 06:48:50;;;;;;;2.28;1.88;;;5.90;99.90;;;;;;5062142;28;20028;-78
2024/03/13 06:51:16;;;;;;;4.05;2.55;;;6.10;99.90;;;;;;5053588;28;20491;-78
2024/03/13 06:53:42;;;;;;;7.95;3.95;;;6.20;99.90;;;;;;5071757;28;20040;-78
2024/03/13 06:56:07;;;;;;;2.65;2.45;;;6.50;99.90;;;;;;5063907;28;20024;-78
2024/03/13 06:58:33;;;;;;;3.50;2.28;;;6.60;99.90;;;;;;5061085;28;20028;-79
2024/03/13 07:00:59;;;;;;;5.63;1.77;;;6.70;99.90;;;;;;5071819;28;20092;-79
2024/03/13 07:03:25;;;;;;;4.97;2.25;;;6.90;99.90;;;;;;5079280;28;20040;-78
2024/03/13 07:05:54;;;;;;;3.30;2.15;;;7.00;99.90;;;;;;5049688;28;20679;-79
2024/03/13 07:08:20;;;;;;;3.60;2.15;;;7.20;99.90;;;;;;5065422;28;20045;-79
2024/03/13 07:10:46;;;;;;;3.92;2.63;;;7.30;99.90;;;;;;5083003;28;20100;-79
2024/03/13 07:13:12;;;;;;;6.47;2.50;;;7.40;99.90;;;;;;5072625;28;20048;-78
2024/03/13 07:15:44;;;;;;;4.30;2.55;;;7.60;99.90;;;;;;5091951;28;20066;-77
2024/03/13 07:18:09;;;;;;;4.50;2.92;;;7.80;99.90;;;;;;5084164;28;20029;-78
2024/03/13 07:20:35;;;;;;;3.80;2.60;;;8.00;99.90;;;;;;5078517;28;20410;-77
2024/03/13 07:23:01;;;;;;;6.25;3.15;;;8.30;99.90;;;;;;5054556;28;20037;-77
2024/03/13 07:25:27;;;;;;;3.78;2.35;;;8.50;99.90;;;;;;5077484;28;20024;-77
2024/03/13 07:27:52;;;;;;;3.83;2.00;;;8.70;99.90;;;;;;5062547;28;20032;-76
2024/03/13 07:30:19;;;;;;;3.50;2.58;;;8.70;99.90;;;;;;5057522;28;20028;-77
2024/03/13 07:32:45;;;;;;;55.17;20.75;;;8.70;99.90;;;;;;5057418;28;20028;-77
2024/03/13 07:35:12;;;;;;;36.20;14.80;;;8.70;99.90;;;;;;5060787;28;20536;-77
2024/03/13 07:37:38;;;;;;;40.97;17.15;;;8.70;99.90;;;;;;5077292;28;20020;-77
2024/03/13 07:40:05;;;;;;;55.45;20.67;;;8.70;99.90;;;;;;5053482;28;20031;-77
2024/03/13 07:42:31;;;;;;;70.20;29.42;;;8.70;99.90;;;;;;5054482;28;20463;-76
2024/03/13 07:44:57;;;;;;;22.85;12.25;;;8.80;99.90;;;;;;5061360;28;20096;-76
2024/03/13 07:47:23;;;;;;;5.05;3.67;;;8.80;99.90;;;;;;5074518;28;20164;-77
2024/03/13 07:49:49;;;;;;;9.80;4.13;;;8.90;99.90;;;;;;5071887;28;20070;-77
2024/03/13 07:52:15;;;;;;;4.07;3.33;;;9.00;99.90;;;;;;5094916;28;20024;-77
2024/03/13 07:54:41;;;;;;;7.30;5.00;;;9.20;99.90;;;;;;5095447;28;20030;-77
2024/03/13 07:57:08;;;;;;;7.82;6.10;;;9.30;99.90;;;;;;5077465;28;20115;-79
2024/03/13 07:59:34;;;;;;;3.40;2.70;;;9.50;99.90;;;;;;5106989;22;20139;-78
2024/03/13 08:02:00;;;;;;;12.05;5.50;;;9.70;99.90;;;;;;5098629;28;20044;-80
2024/03/13 08:04:26;;;;;;;8.25;5.55;;;9.90;99.90;;;;;;5096158;28;20020;-78
2024/03/13 08:06:55;;;;;;;14.98;5.03;;;10.10;99.90;;;;;;5079576;28;20031;-78
2024/03/13 08:09:28;;;;;;;5.97;3.72;;;10.20;99.90;;;;;;5078455;28;20115;-80
2024/03/13 08:11:54;;;;;;;7.07;3.15;;;10.30;99.90;;;;;;5078208;28;20036;-77
2024/03/13 08:14:21;;;;;;;4.65;2.05;;;10.40;99.90;;;;;;5096503;28;20024;-78
2024/03/13 08:16:47;;;;;;;5.55;2.03;;;10.50;99.90;;;;;;5077620;28;20025;-77
2024/03/13 08:19:12;;;;;;;5.28;3.75;;;10.70;99.90;;;;;;5094691;28;20020;-77
2024/03/13 08:21:38;;;;;;;3.95;2.53;;;10.80;99.90;;;;;;5093850;28;20052;-77
2024/03/13 08:24:04;;;;;;;3.90;2.00;;;11.00;98.00;;;;;;5075028;28;20029;-78
2024/03/13 08:26:29;;;;;;;5.85;2.53;;;11.10;94.20;;;;;;5092583;28;20081;-77
2024/03/13 08:28:56;;;;;;;3.83;2.53;;;11.20;94.70;;;;;;5091788;28;20021;-79
2024/03/13 08:31:23;;;;;;;4.32;2.55;;;11.40;92.10;;;;;;5104298;28;20097;-77
2024/03/13 08:33:48;;;;;;;17.90;2.90;;;11.50;86.70;;;;;;5068267;28;20016;-78
2024/03/13 08:36:15;;;;;;;6.15;2.05;;;11.60;85.20;;;;;;5100308;28;20483;-76
2024/03/13 08:38:41;;;;;;;7.13;3.20;;;11.70;83.70;;;;;;5095955;28;20032;-79
2024/03/13 08:41:06;;;;;;;4.35;2.95;;;11.60;81.40;;;;;;5117491;28;20004;-77
2024/03/13 08:43:32;;;;;;;5.05;2.30;;;11.80;81.30;;;;;;5099026;28;20034;-78
2024/03/13 08:45:58;;;;;;;4.97;3.13;;;11.80;80.00;;;;;;5111298;28;20028;-77
2024/03/13 08:48:26;;;;;;;7.13;2.50;;;12.00;79.00;;;;;;5108787;28;20031;-77
2024/03/13 08:50:52;;;;;;;5.35;2.70;;;12.30;94.70;;;;;;5088968;28;20020;-77
2024/03/13 08:53:18;;;;;;;8.50;3.35;;;12.50;91.60;;;;;;5088491;28;20028;-77
2024/03/13 08:55:43;;;;;;;6.47;2.38;;;12.50;83.30;;;;;;5090930;28;20051;-77
2024/03/13 08:58:09;;;;;;;3.40;1.95;;;12.50;81.60;;;;;;5102074;28;20032;-76
2024/03/13 09:00:35;;;;;;;4.15;2.50;;;12.40;75.80;;;;;;5103416;28;20074;-76
2024/03/13 09:03:01;;;;;;;8.23;3.53;;;12.40;74.30;;;;;;5109735;28;20036;-77
2024/03/13 09:05:28;;;;;;;6.25;2.38;;;12.40;72.60;;;;;;5107375;28;20084;-76
2024/03/13 09:07:54;;;;;;;4.97;3.10;;;12.30;69.70;;;;;;5067965;28;20039;-77
2024/03/13 09:10:20;;;;;;;7.88;4.00;;;12.30;66.90;;;;;;5082040;28;20024;-77
2024/03/13 09:12:46;;;;;;;4.57;2.90;;;12.30;65.70;;;;;;5076156;28;20029;-77
2024/03/13 09:15:13;;;;;;;4.25;2.25;;;12.40;67.00;;;;;;5083366;28;20029;-77
2024/03/13 09:17:40;;;;;;;4.65;2.60;;;12.40;65.20;;;;;;5098048;28;20031;-77
2024/03/13 09:20:06;;;;;;;4.05;2.15;;;12.50;63.20;;;;;;5093316;28;20029;-76
2024/03/13 09:22:32;;;;;;;5.03;2.55;;;12.50;64.40;;;;;;5082783;28;20035;-76
2024/03/13 09:24:57;;;;;;;3.72;2.20;;;12.60;65.00;;;;;;5096451;28;20020;-76
2024/03/13 09:27:23;;;;;;;5.47;2.58;;;12.60;62.80;;;;;;5103835;28;20021;-77
2024/03/13 09:29:51;;;;;;;3.42;2.45;;;12.60;62.30;;;;;;5091838;28;20066;-75
2024/03/13 09:32:18;;;;;;;7.70;3.97;;;12.70;61.60;;;;;;5080489;28;20062;-78
2024/03/13 09:34:43;;;;;;;4.65;2.58;;;12.70;61.00;;;;;;5075417;28;20025;-76
2024/03/13 09:37:10;;;;;;;7.35;2.45;;;12.80;59.70;;;;;;5098805;28;20058;-76
2024/03/13 09:39:37;;;;;;;3.72;2.13;;;12.90;61.10;;;;;;5107232;28;20020;-76
2024/03/13 09:42:22;;;;;;;3.05;1.88;;;13.00;58.30;;;;;;5098264;28;20039;-78
2024/03/13 09:44:48;;;;;;;9.80;2.80;;;13.00;59.30;;;;;;5100062;28;20062;-78
2024/03/13 09:47:14;;;;;;;3.53;2.88;;;13.00;57.70;;;;;;5099433;28;20035;-77
2024/03/13 09:49:43;;;;;;;4.63;2.13;;;13.00;58.10;;;;;;5096779;28;20032;-77
2024/03/13 09:52:15;;;;;;;4.22;2.50;;;13.20;59.20;;;;;;5109419;28;20032;-78
2024/03/13 09:54:45;;;;;;;5.53;1.83;;;13.20;58.00;;;;;;5084467;28;20027;-76
2024/03/13 09:57:12;;;;;;;7.25;2.70;;;13.20;57.70;;;;;;5088947;28;20393;-78
2024/03/13 09:59:38;;;;;;;4.15;2.80;;;13.40;55.20;;;;;;5082838;28;20029;-77
2024/03/13 10:02:16;;;;;;;5.40;2.63;;;13.20;56.10;;;;;;5092276;28;20104;-77
2024/03/13 10:04:42;;;;;;;4.38;1.95;;;13.20;56.90;;;;;;5076517;28;20020;-77
2024/03/13 10:07:14;;;;;;;6.25;2.53;;;13.40;56.40;;;;;;5080626;28;20115;-78
2024/03/13 10:09:40;;;;;;;3.47;1.90;;;13.50;56.60;;;;;;5094213;28;20218;-77
2024/03/13 10:12:10;;;;;;;3.28;2.05;;;13.50;57.60;;;;;;5090683;28;20016;-77
2024/03/13 10:14:36;;;;;;;3.42;2.35;;;13.50;53.80;;;;;;5109269;28;20534;-77
2024/03/13 10:17:05;;;;;;;5.13;2.30;;;13.50;55.30;;;;;;5110792;28;20039;-76
2024/03/13 10:19:38;;;;;;;4.10;2.80;;;13.70;55.10;;;;;;5092434;28;20032;-77
2024/03/13 10:22:05;;;;;;;4.50;2.92;;;13.70;55.90;;;;;;5112440;28;20028;-77
2024/03/13 10:24:33;;;;;;;3.20;1.98;;;13.70;53.90;;;;;;5107958;28;20047;-79
2024/03/13 10:27:02;;;;;;;4.72;2.53;;;13.70;54.10;;;;;;5082518;28;20393;-77
2024/03/13 10:29:28;;;;;;;3.33;2.00;;;13.70;54.30;;;;;;5098973;28;20023;-77
2024/03/13 10:31:55;;;;;;;6.80;2.85;;;13.80;56.90;;;;;;5097863;28;20550;-79
2024/03/13 10:34:21;;;;;;;3.92;2.20;;;13.80;53.70;;;;;;5081975;28;20133;-77
2024/03/13 10:36:47;;;;;;;5.55;2.65;;;13.90;52.90;;;;;;5081408;28;20517;-76
2024/03/13 10:39:12;;;;;;;5.65;3.03;;;13.80;52.40;;;;;;5081364;28;20032;-77
2024/03/13 10:41:44;;;;;;;3.25;2.38;;;13.60;52.20;;;;;;5097555;28;20035;-77
2024/03/13 10:44:10;;;;;;;3.47;1.77;;;13.80;52.50;;;;;;5098823;28;20456;-77
2024/03/13 10:46:36;;;;;;;4.50;2.08;;;14.00;53.30;;;;;;5098714;28;20016;-77
2024/03/13 10:49:03;;;;;;;4.18;2.53;;;14.20;52.10;;;;;;5099751;28;20020;-78
2024/03/13 10:51:32;;;;;;;2.42;1.70;;;14.20;50.10;;;;;;5095353;28;20044;-76
2024/03/13 10:54:04;;;;;;;2.78;1.80;;;14.10;50.70;;;;;;5070349;28;20706;-77
2024/03/13 10:56:30;;;;;;;3.63;2.10;;;14.30;53.80;;;;;;5054074;28;20103;-79
2024/03/13 10:58:55;;;;;;;3.97;2.22;;;14.30;52.00;;;;;;5079433;28;20544;-77
2024/03/13 11:01:21;;;;;;;3.22;2.22;;;14.50;53.60;;;;;;5078522;28;20024;-76
2024/03/13 11:03:59;;;;;;;4.22;2.30;;;14.40;50.00;;;;;;5064215;28;20029;-77
2024/03/13 11:06:25;;;;;;;4.97;3.30;;;14.60;50.10;;;;;;5082740;28;20016;-76
2024/03/13 11:08:51;;;;;;;6.82;3.35;;;14.40;50.80;;;;;;5058258;28;20025;-74
2024/03/13 11:11:23;;;;;;;4.30;2.80;;;14.50;51.20;;;;;;5062086;28;20538;-76
2024/03/13 11:13:57;;;;;;;2.63;1.83;;;14.40;47.10;;;;;;5047440;28;20029;-77
2024/03/13 11:16:23;;;;;;;3.15;1.92;;;14.60;46.80;;;;;;5072836;28;20521;-76
2024/03/13 11:18:55;;;;;;;1.98;1.50;;;14.70;47.10;;;;;;5073215;28;20028;-78
2024/03/13 11:21:33;;;;;;;2.65;1.88;;;14.70;48.30;;;;;;5067803;28;20579;-77
2024/03/13 11:24:05;;;;;;;2.97;1.65;;;14.80;46.70;;;;;;5090115;28;20055;-81
2024/03/13 11:26:37;;;;;;;4.28;1.83;;;15.10;48.40;;;;;;5075756;28;20031;-80
2024/03/13 11:29:05;;;;;;;3.13;1.77;;;15.00;45.70;;;;;;5090748;28;21587;-81
2024/03/13 11:31:33;;;;;;;3.28;1.83;;;15.20;51.10;;;;;;5076531;28;20395;-82
2024/03/13 11:34:00;;;;;;;4.72;2.85;;;15.40;44.80;;;;;;5104498;28;20020;-79
2024/03/13 11:36:28;;;;;;;4.53;2.25;;;15.50;48.50;;;;;;5098016;28;20020;-77
2024/03/13 11:38:54;;;;;;;3.78;2.00;;;15.50;47.80;;;;;;5063162;28;20372;-77
2024/03/13 11:41:20;;;;;;;4.25;2.20;;;15.30;45.50;;;;;;5055736;28;20048;-78
2024/03/13 11:43:46;;;;;;;2.42;1.80;;;15.40;47.90;;;;;;5091269;28;20012;-77
2024/03/13 11:46:14;;;;;;;3.80;1.88;;;15.60;44.40;;;;;;5058372;28;20426;-76
2024/03/13 11:48:41;;;;;;;3.97;1.88;;;15.60;45.00;;;;;;5074597;28;20095;-77
2024/03/13 11:51:07;;;;;;;3.92;2.25;;;15.40;45.00;;;;;;5068243;28;20424;-76
2024/03/13 11:53:40;;;;;;;2.25;1.42;;;15.30;44.40;;;;;;5070353;28;20558;-75
2024/03/13 11:56:09;;;;;;;3.50;2.35;;;15.20;44.80;;;;;;5071678;28;20112;-76
2024/03/13 11:58:36;;;;;;;2.92;1.60;;;15.10;43.90;;;;;;5066264;28;20020;-77
2024/03/13 12:01:02;;;;;;;2.45;1.50;;;15.00;43.90;;;;;;5076520;28;20032;-77
2024/03/13 12:03:35;;;;;;;3.13;1.85;;;15.00;44.40;;;;;;5056289;28;20108;-75
2024/03/13 12:06:00;;;;;;;2.35;1.55;;;15.00;45.20;;;;;;5067499;28;20103;-77
2024/03/13 12:08:27;;;;;;;5.38;1.67;;;14.90;45.10;;;;;;5068501;28;20048;-77
2024/03/13 12:10:55;;;;;;;2.65;1.23;;;14.70;45.70;;;;;;5076277;28;20017;-78
2024/03/13 12:13:23;;;;;;;2.50;1.45;;;14.70;45.30;;;;;;5095257;28;20024;-78
2024/03/13 12:15:49;;;;;;;4.03;2.03;;;14.90;46.00;;;;;;5097716;28;20025;-78
2024/03/13 12:18:18;;;;;;;2.70;1.85;;;15.20;49.00;;;;;;5097612;28;20032;-77
2024/03/13 12:20:45;;;;;;;4.53;2.67;;;15.20;45.20;;;;;;5074620;28;20016;-77
2024/03/13 12:23:13;;;;;;;2.47;1.70;;;15.20;44.20;;;;;;5078377;28;20028;-78
2024/03/13 12:25:40;;;;;;;2.17;1.70;;;15.40;44.30;;;;;;5062846;28;20039;-77
2024/03/13 12:28:16;;;;;;;2.38;1.90;;;15.70;46.60;;;;;;5063999;28;20075;-78
2024/03/13 12:30:43;;;;;;;3.22;1.63;;;16.10;42.90;;;;;;5069828;28;20528;-76
2024/03/13 12:33:11;;;;;;;2.15;1.48;;;16.40;41.00;;;;;;5095516;28;20028;-78
2024/03/13 12:35:37;;;;;;;3.22;1.98;;;16.50;39.70;;;;;;5078154;28;20501;-78
2024/03/13 12:38:03;;;;;;;2.78;1.23;;;16.60;39.70;;;;;;5096012;28;20043;-77
2024/03/13 12:40:30;;;;;;;3.08;1.25;;;16.40;41.40;;;;;;5079346;28;20478;-77
2024/03/13 12:42:56;;;;;;;1.77;1.35;;;16.20;41.80;;;;;;5071009;28;20040;-78
2024/03/13 12:45:22;;;;;;;2.67;1.42;;;15.90;41.30;;;;;;5065000;28;20024;-78
2024/03/13 12:47:48;;;;;;;1.92;1.40;;;15.90;42.20;;;;;;5056320;28;20020;-77
2024/03/13 12:50:18;;;;;;;3.67;1.80;;;16.00;40.80;;;;;;5067087;28;20496;-78
2024/03/13 12:52:47;;;;;;;2.88;1.83;;;15.90;42.70;;;;;;5064231;28;20024;-79
2024/03/13 12:55:16;;;;;;;4.00;1.27;;;16.10;41.70;;;;;;5073706;28;20025;-78
2024/03/13 12:57:42;;;;;;;3.00;1.60;;;15.90;40.60;;;;;;5063936;28;20086;-77
2024/03/13 13:00:15;;;;;;;1.60;1.20;;;15.90;39.30;;;;;;5071473;28;20499;-77
2024/03/13 13:02:46;;;;;;;7.57;1.35;;;16.10;43.20;;;;;;5081950;28;20035;-78
2024/03/13 13:05:15;;;;;;;2.65;1.75;;;16.30;41.00;;;;;;5065183;28;20020;-77
2024/03/13 13:07:51;;;;;;;3.53;1.67;;;16.40;38.20;;;;;;5058661;28;20020;-78
2024/03/13 13:10:20;;;;;;;1.98;1.45;;;16.50;39.90;;;;;;5054742;28;20039;-77